createdAt,value
2023-04-07T00:00:38.784Z,99210.59
2023-04-07T00:03:09.021Z,99214.56
2023-04-07T00:05:37.746Z,99206.34
2023-04-07T00:08:06.726Z,99204.91
2023-04-07T00:10:37.160Z,99201.19
2023-04-07T00:13:05.905Z,99198.53
2023-04-07T00:15:34.714Z,99198.16
2023-04-07T00:18:03.781Z,99196.97
2023-04-07T00:20:32.526Z,99198.81
2023-04-07T00:23:01.185Z,99202.06
2023-04-07T00:25:29.848Z,99200.81
2023-04-07T00:28:00.088Z,99195.53
2023-04-07T00:30:28.879Z,99192.97
2023-04-07T00:32:57.780Z,99198.84
2023-04-07T00:35:27.672Z,99190.75
2023-04-07T00:37:57.115Z,99193.78
2023-04-07T00:40:26.227Z,99191.91
2023-04-07T00:42:54.955Z,99198.13
2023-04-07T00:45:25.110Z,99187.22
2023-04-07T00:47:54.130Z,99187.31
2023-04-07T00:50:23.288Z,99181.44
2023-04-07T00:52:52.909Z,99179.22
2023-04-07T00:55:21.639Z,99177.53
2023-04-07T00:57:51.858Z,99181.69
2023-04-07T01:00:21.704Z,99173.84
2023-04-07T01:03:01.363Z,99178.31
2023-04-07T01:05:43.973Z,99170.19
2023-04-07T01:08:20.846Z,99162.56
2023-04-07T01:10:55.647Z,99163.69
2023-04-07T01:13:32.003Z,99159.31
2023-04-07T01:16:18.440Z,99165.28
2023-04-07T01:18:58.619Z,99158.81
2023-04-07T01:21:30.027Z,99161.47
2023-04-07T01:24:30.148Z,99158.72
2023-04-07T01:27:15.421Z,99153.69
2023-04-07T01:29:50.635Z,99148.03
2023-04-07T01:32:22.409Z,99151.41
2023-04-07T01:34:53.657Z,99151.25
2023-04-07T01:37:23.144Z,99152.28
2023-04-07T01:39:52.106Z,99148.25
2023-04-07T01:42:22.223Z,99148.34
2023-04-07T01:44:54.424Z,99146.06
2023-04-07T01:47:23.547Z,99144.13
2023-04-07T01:49:53.656Z,99141.44
2023-04-07T01:52:30.639Z,99147.94
2023-04-07T01:54:59.663Z,99139.84
2023-04-07T01:57:28.716Z,99144.47
2023-04-07T02:00:05.277Z,99141.00
2023-04-07T02:02:51.198Z,99141.34
2023-04-07T02:05:23.944Z,99145.44
2023-04-07T02:07:59.425Z,99140.41
2023-04-07T02:10:31.154Z,99136.56
2023-04-07T02:13:05.171Z,99139.13
2023-04-07T02:15:37.983Z,99132.97
2023-04-07T02:18:10.693Z,99129.88
2023-04-07T02:20:42.612Z,99133.69
2023-04-07T02:23:14.648Z,99128.72
2023-04-07T02:25:43.688Z,99128.44
2023-04-07T02:28:12.393Z,99131.53
2023-04-07T02:30:42.469Z,99127.22
2023-04-07T02:33:11.155Z,99126.06
2023-04-07T02:35:39.951Z,99119.84
2023-04-07T02:38:08.680Z,99120.50
2023-04-07T02:40:38.249Z,99114.38
2023-04-07T02:43:07.139Z,99118.75
2023-04-07T02:45:35.870Z,99117.25
2023-04-07T02:48:07.708Z,99114.44
2023-04-07T02:50:36.393Z,99111.50
2023-04-07T02:53:05.078Z,99108.59
2023-04-07T02:55:33.798Z,99113.88
2023-04-07T02:58:02.499Z,99111.75
2023-04-07T03:00:44.371Z,99115.50
2023-04-07T03:03:24.150Z,99102.28
2023-04-07T03:06:15.874Z,99111.16
2023-04-07T03:08:59.444Z,99106.88
2023-04-07T03:11:28.294Z,99103.81
2023-04-07T03:13:59.044Z,99110.13
2023-04-07T03:16:29.607Z,99098.31
2023-04-07T03:19:12.070Z,99095.78
2023-04-07T03:21:45.008Z,99098.41
2023-04-07T03:24:13.702Z,99099.41
2023-04-07T03:26:42.436Z,99098.06
2023-04-07T03:29:24.248Z,99103.41
2023-04-07T03:31:54.413Z,99097.16
2023-04-07T03:34:28.798Z,99098.47
2023-04-07T03:37:00.920Z,99101.13
2023-04-07T03:39:32.766Z,99098.84
2023-04-07T03:42:03.436Z,99092.63
2023-04-07T03:44:35.207Z,99100.22
2023-04-07T03:47:04.067Z,99095.28
2023-04-07T03:49:37.890Z,99097.25
2023-04-07T03:52:07.952Z,99094.31
2023-04-07T03:54:36.902Z,99093.00
2023-04-07T03:57:07.365Z,99093.97
2023-04-07T03:59:42.029Z,99097.41
2023-04-07T04:02:10.873Z,99093.44
2023-04-07T04:04:41.793Z,99099.38
2023-04-07T04:07:12.085Z,99094.63
2023-04-07T04:09:52.769Z,99090.69
2023-04-07T04:12:22.035Z,99094.63
2023-04-07T04:15:04.811Z,99096.09
2023-04-07T04:17:34.357Z,99098.41
2023-04-07T04:20:08.177Z,99097.25
2023-04-07T04:22:50.867Z,99094.97
2023-04-07T04:25:22.875Z,99100.56
2023-04-07T04:27:56.064Z,99096.59
2023-04-07T04:30:40.871Z,99099.25
2023-04-07T04:33:14.073Z,99100.25
2023-04-07T04:35:52.954Z,99101.03
2023-04-07T04:38:24.273Z,99101.50
2023-04-07T04:40:59.504Z,99102.31
2023-04-07T04:43:33.876Z,99099.06
2023-04-07T04:46:05.541Z,99101.22
2023-04-07T04:48:40.930Z,99092.13
2023-04-07T04:51:12.035Z,99095.56
2023-04-07T04:53:43.157Z,99101.84
2023-04-07T04:56:12.146Z,99097.91
2023-04-07T04:58:47.449Z,99098.38
2023-04-07T05:01:28.011Z,99096.06
2023-04-07T05:04:05.067Z,99093.28
2023-04-07T05:06:37.796Z,99090.31
2023-04-07T05:09:11.369Z,99092.47
2023-04-07T05:11:46.151Z,99101.84
2023-04-07T05:14:15.181Z,99093.28
2023-04-07T05:16:50.744Z,99089.13
2023-04-07T05:19:23.403Z,99100.63
2023-04-07T05:21:56.574Z,99095.19
2023-04-07T05:24:29.898Z,99104.41
2023-04-07T05:27:02.512Z,99099.13
2023-04-07T05:29:32.957Z,99096.84
2023-04-07T05:32:02.524Z,99102.13
2023-04-07T05:34:33.531Z,99096.50
2023-04-07T05:37:03.896Z,99094.13
2023-04-07T05:39:33.898Z,99090.31
2023-04-07T05:42:05.581Z,99084.44
2023-04-07T05:44:34.804Z,99090.47
2023-04-07T05:47:05.986Z,99092.81
2023-04-07T05:49:35.725Z,99091.34
2023-04-07T05:52:09.806Z,99088.53
2023-04-07T05:54:43.981Z,99086.94
2023-04-07T05:57:15.989Z,99078.63
2023-04-07T05:59:48.741Z,99079.59
2023-04-07T06:02:17.632Z,99082.66
2023-04-07T06:04:49.399Z,99082.94
2023-04-07T06:07:21.727Z,99078.00
2023-04-07T06:09:51.347Z,99075.78
2023-04-07T06:12:20.987Z,99076.94
2023-04-07T06:14:56.609Z,99075.63
2023-04-07T06:17:25.602Z,99075.41
2023-04-07T06:19:54.508Z,99071.94
2023-04-07T06:22:24.668Z,99077.31
2023-04-07T06:24:53.594Z,99077.19
2023-04-07T06:27:23.347Z,99066.75
2023-04-07T06:29:52.641Z,99069.97
2023-04-07T06:32:21.693Z,99071.63
2023-04-07T06:34:50.765Z,99073.19
2023-04-07T06:37:19.677Z,99073.56
2023-04-07T06:39:50.043Z,99079.31
2023-04-07T06:42:18.772Z,99076.00
2023-04-07T06:44:59.044Z,99080.09
2023-04-07T06:47:28.380Z,99078.09
2023-04-07T06:49:57.142Z,99069.03
2023-04-07T06:52:25.854Z,99068.19
2023-04-07T06:54:55.924Z,99070.97
2023-04-07T06:57:24.684Z,99067.19
2023-04-07T06:59:53.519Z,99068.09
2023-04-07T07:02:22.468Z,99063.66
2023-04-07T07:04:51.587Z,99064.53
2023-04-07T07:07:26.069Z,99060.38
2023-04-07T07:10:02.849Z,99060.88
2023-04-07T07:12:32.470Z,99059.53
2023-04-07T07:15:02.255Z,99060.03
2023-04-07T07:17:32.033Z,99060.78
2023-04-07T07:20:01.428Z,99053.72
2023-04-07T07:22:30.122Z,99065.63
2023-04-07T07:25:00.315Z,99058.75
2023-04-07T07:27:30.150Z,99066.75
2023-04-07T07:29:59.368Z,99067.38
2023-04-07T07:32:28.460Z,99064.38
2023-04-07T07:34:57.918Z,99060.91
2023-04-07T07:37:26.771Z,99070.16
2023-04-07T07:39:56.358Z,99069.97
2023-04-07T07:42:32.834Z,99070.41
2023-04-07T07:45:06.959Z,99074.53
2023-04-07T07:47:43.034Z,99074.59
2023-04-07T07:50:17.730Z,99070.91
2023-04-07T07:53:18.720Z,99075.00
2023-04-07T07:55:57.254Z,99075.25
2023-04-07T07:58:29.338Z,99079.38
2023-04-07T08:01:10.601Z,99075.88
2023-04-07T08:03:42.064Z,99075.06
2023-04-07T08:06:21.349Z,99083.25
2023-04-07T08:08:58.452Z,99084.06
2023-04-07T08:11:31.209Z,99087.34
2023-04-07T08:14:03.341Z,99080.56
2023-04-07T08:16:38.226Z,99088.97
2023-04-07T08:19:14.359Z,99081.56
2023-04-07T08:21:46.438Z,99096.34
2023-04-07T08:24:18.251Z,99095.88
2023-04-07T08:26:50.712Z,99096.31
2023-04-07T08:29:29.950Z,99095.47
2023-04-07T08:32:03.702Z,99099.31
2023-04-07T08:34:34.531Z,99098.66
2023-04-07T08:37:14.105Z,99097.44
2023-04-07T08:39:48.214Z,99101.91
2023-04-07T08:42:32.638Z,99101.88
2023-04-07T08:45:13.187Z,99105.19
2023-04-07T08:47:45.827Z,99093.31
2023-04-07T08:50:22.985Z,99092.06
2023-04-07T08:52:56.181Z,99090.63
2023-04-07T08:55:51.813Z,99088.75
2023-04-07T08:58:29.962Z,99089.47
2023-04-07T09:01:04.213Z,99093.16
2023-04-07T09:03:40.398Z,99086.38
2023-04-07T09:06:15.485Z,99087.38
2023-04-07T09:08:48.809Z,99097.19
2023-04-07T09:11:27.823Z,99095.16
2023-04-07T09:14:01.888Z,99089.91
2023-04-07T09:16:38.552Z,99091.38
2023-04-07T09:19:15.268Z,99080.88
2023-04-07T09:21:51.795Z,99088.78
2023-04-07T09:24:26.397Z,99082.44
2023-04-07T09:27:12.361Z,99075.41
2023-04-07T09:29:43.550Z,99076.56
2023-04-07T09:32:14.965Z,99078.47
2023-04-07T09:34:43.940Z,99082.28
2023-04-07T09:37:24.163Z,99080.13
2023-04-07T09:39:54.624Z,99072.03
2023-04-07T09:42:23.582Z,99075.41
2023-04-07T09:44:52.690Z,99070.63
2023-04-07T09:47:29.243Z,99068.69
2023-04-07T09:49:59.932Z,99068.69
2023-04-07T09:52:53.620Z,99069.41
2023-04-07T09:55:24.313Z,99063.06
2023-04-07T09:57:55.465Z,99063.81
2023-04-07T10:00:24.967Z,99055.38
2023-04-07T10:02:55.626Z,99072.56
2023-04-07T10:05:26.510Z,99072.91
2023-04-07T10:07:55.732Z,99070.25
2023-04-07T10:10:25.032Z,99077.41
2023-04-07T10:12:57.105Z,99076.88
2023-04-07T10:15:26.722Z,99074.06
2023-04-07T10:17:57.950Z,99072.88
2023-04-07T10:20:28.166Z,99071.03
2023-04-07T10:23:06.035Z,99069.28
2023-04-07T10:25:36.497Z,99073.28
2023-04-07T10:28:11.944Z,99077.88
2023-04-07T10:30:42.025Z,99065.53
2023-04-07T10:33:12.202Z,99067.59
2023-04-07T10:36:07.488Z,99069.28
2023-04-07T10:38:36.412Z,99061.69
2023-04-07T10:41:36.951Z,99060.72
2023-04-07T10:44:06.813Z,99069.22
2023-04-07T10:47:07.168Z,99068.19
2023-04-07T10:49:38.065Z,99069.16
2023-04-07T10:52:26.420Z,99070.44
2023-04-07T10:55:32.924Z,99070.00
2023-04-07T10:58:23.006Z,99069.19
2023-04-07T11:01:29.019Z,99074.16
2023-04-07T11:04:01.293Z,99063.06
2023-04-07T11:06:31.681Z,99071.03
2023-04-07T11:09:00.706Z,99070.84
2023-04-07T11:11:43.324Z,99066.69
2023-04-07T11:14:12.024Z,99067.56
2023-04-07T11:16:45.663Z,99064.75
2023-04-07T11:19:14.351Z,99066.38
2023-04-07T11:21:44.465Z,99056.59
2023-04-07T11:24:33.214Z,99057.31
2023-04-07T11:27:02.506Z,99062.03
2023-04-07T11:29:32.536Z,99058.88
2023-04-07T11:32:03.647Z,99060.38
2023-04-07T11:34:33.674Z,99057.81
2023-04-07T11:37:21.752Z,99055.41
2023-04-07T11:39:54.567Z,99051.72
2023-04-07T11:42:34.768Z,99054.22
2023-04-07T11:45:05.024Z,99054.59
2023-04-07T11:47:38.744Z,99060.63
2023-04-07T11:50:09.046Z,99056.88
2023-04-07T11:52:45.408Z,99044.84
2023-04-07T11:55:22.452Z,99049.09
2023-04-07T11:57:52.375Z,99051.78
2023-04-07T12:00:22.438Z,99049.66
2023-04-07T12:02:51.611Z,99049.22
2023-04-07T12:05:20.601Z,99057.50
2023-04-07T12:07:57.841Z,99055.53
2023-04-07T12:10:27.193Z,99054.50
2023-04-07T12:12:58.169Z,99053.69
2023-04-07T12:15:28.106Z,99042.56
2023-04-07T12:17:57.312Z,99041.69
2023-04-07T12:20:25.990Z,99050.56
2023-04-07T12:22:56.117Z,99037.03
2023-04-07T12:25:24.994Z,99038.22
2023-04-07T12:27:53.804Z,99039.53
2023-04-07T12:30:22.761Z,99043.59
2023-04-07T12:32:52.841Z,99042.19
2023-04-07T12:35:21.938Z,99041.41
2023-04-07T12:37:52.084Z,99047.13
2023-04-07T12:40:22.341Z,99046.50
2023-04-07T12:42:52.142Z,99042.00
2023-04-07T12:45:20.795Z,99044.38
2023-04-07T12:47:49.463Z,99044.31
2023-04-07T12:50:18.776Z,99053.56
2023-04-07T12:52:48.545Z,99049.66
2023-04-07T12:55:17.645Z,99055.59
2023-04-07T12:57:47.734Z,99046.97
2023-04-07T13:00:16.940Z,99043.22
2023-04-07T13:02:45.868Z,99046.97
2023-04-07T13:05:14.766Z,99050.81
2023-04-07T13:07:43.429Z,99052.50
2023-04-07T13:10:12.566Z,99047.53
2023-04-07T13:12:42.269Z,99043.31
2023-04-07T13:15:12.630Z,99045.34
2023-04-07T13:17:41.512Z,99040.94
2023-04-07T13:20:11.306Z,99056.91
2023-04-07T13:22:49.134Z,99045.00
2023-04-07T13:25:24.578Z,99046.31
2023-04-07T13:27:53.769Z,99041.28
2023-04-07T13:30:26.387Z,99036.13
2023-04-07T13:32:56.419Z,99039.88
2023-04-07T13:35:25.258Z,99036.16
2023-04-07T13:37:55.055Z,99030.84
2023-04-07T13:40:23.772Z,99029.38
2023-04-07T13:42:52.538Z,99030.25
2023-04-07T13:45:21.698Z,99023.97
2023-04-07T13:47:52.069Z,99023.06
2023-04-07T13:50:21.456Z,99022.81
2023-04-07T13:52:50.314Z,99024.34
2023-04-07T13:55:20.429Z,99016.69
2023-04-07T13:57:49.286Z,99013.72
2023-04-07T14:00:19.124Z,99009.00
2023-04-07T14:02:48.556Z,99013.59
2023-04-07T14:05:28.479Z,99010.38
2023-04-07T14:07:58.524Z,99012.97
2023-04-07T14:10:28.488Z,99004.97
2023-04-07T14:12:57.676Z,99002.84
2023-04-07T14:15:29.333Z,99000.19
2023-04-07T14:17:58.262Z,98999.38
2023-04-07T14:20:28.860Z,98991.72
2023-04-07T14:22:58.789Z,98986.59
2023-04-07T14:25:31.050Z,99002.59
2023-04-07T14:28:02.445Z,98993.63
2023-04-07T14:30:34.564Z,99001.91
2023-04-07T14:33:05.149Z,99004.00
2023-04-07T14:35:38.335Z,99006.84
2023-04-07T14:38:07.128Z,99012.69
2023-04-07T14:40:37.311Z,99015.78
2023-04-07T14:43:22.121Z,99014.00
2023-04-07T14:46:03.825Z,99019.53
2023-04-07T14:48:33.237Z,99014.41
2023-04-07T14:51:09.896Z,99010.81
2023-04-07T14:53:40.137Z,99019.84
2023-04-07T14:56:10.563Z,99021.63
2023-04-07T14:58:40.680Z,99019.69
2023-04-07T15:01:10.683Z,99020.13
2023-04-07T15:03:40.206Z,99016.22
2023-04-07T15:06:14.016Z,99016.41
2023-04-07T15:08:42.842Z,99016.97
2023-04-07T15:11:11.825Z,99013.16
2023-04-07T15:13:40.654Z,99015.09
2023-04-07T15:16:15.929Z,99017.91
2023-04-07T15:18:47.966Z,99020.03
2023-04-07T15:21:18.537Z,99015.81
2023-04-07T15:23:48.649Z,99017.09
2023-04-07T15:26:17.555Z,99022.56
2023-04-07T15:28:46.345Z,99022.91
2023-04-07T15:31:17.795Z,99021.94
2023-04-07T15:33:58.522Z,99023.81
2023-04-07T15:36:32.787Z,99024.22
2023-04-07T15:39:07.118Z,99024.50
2023-04-07T15:41:36.888Z,99029.81
2023-04-07T15:44:06.922Z,99022.31
2023-04-07T15:46:48.242Z,99031.84
2023-04-07T15:49:25.693Z,99026.31
2023-04-07T15:52:01.186Z,99021.13
2023-04-07T15:54:34.749Z,99025.75
2023-04-07T15:57:20.362Z,99027.84
2023-04-07T15:59:51.004Z,99031.19
2023-04-07T16:02:26.417Z,99025.66
2023-04-07T16:05:00.562Z,99033.38
2023-04-07T16:07:33.393Z,99029.47
2023-04-07T16:10:08.598Z,99040.69
2023-04-07T16:12:43.909Z,99037.28
2023-04-07T16:15:36.832Z,99039.47
2023-04-07T16:18:14.925Z,99049.22
2023-04-07T16:20:47.848Z,99053.56
2023-04-07T16:23:25.291Z,99052.75
2023-04-07T16:25:57.555Z,99051.84
2023-04-07T16:28:33.088Z,99053.50
2023-04-07T16:31:09.587Z,99055.50
2023-04-07T16:33:40.579Z,99054.59
2023-04-07T16:36:09.876Z,99063.34
2023-04-07T16:38:46.204Z,99069.38
2023-04-07T16:41:15.453Z,99062.66
2023-04-07T16:43:44.346Z,99070.69
2023-04-07T16:46:14.338Z,99077.81
2023-04-07T16:53:29.069Z,99078.75
2023-04-07T16:56:01.691Z,99082.88
2023-04-07T16:58:34.972Z,99081.72
2023-04-07T17:01:05.183Z,99078.53
2023-04-07T17:03:34.075Z,99086.16
2023-04-07T17:06:05.655Z,99083.03
2023-04-07T17:08:39.736Z,99086.16
2023-04-07T17:11:11.028Z,99089.53
2023-04-07T17:13:56.437Z,99094.56
2023-04-07T17:16:52.118Z,99097.13
2023-04-07T17:19:21.099Z,99097.00
2023-04-07T17:21:50.141Z,99101.31
2023-04-07T17:24:19.901Z,99112.97
2023-04-07T17:26:51.318Z,99115.31
2023-04-07T17:29:21.126Z,99120.78
2023-04-07T17:31:51.392Z,99119.47
2023-04-07T17:34:20.018Z,99123.97
2023-04-07T17:36:50.870Z,99130.00
2023-04-07T17:39:21.959Z,99136.59
2023-04-07T17:41:53.112Z,99138.88
2023-04-07T17:44:24.113Z,99145.09
2023-04-07T17:46:53.753Z,99152.84
2023-04-07T17:49:24.625Z,99155.41
2023-04-07T17:51:54.125Z,99159.13
2023-04-07T17:54:23.007Z,99158.75
2023-04-07T17:56:53.341Z,99158.75
2023-04-07T17:59:23.117Z,99164.13
2023-04-07T18:01:51.961Z,99172.16
2023-04-07T18:04:21.226Z,99167.25
2023-04-07T18:06:54.896Z,99176.09
2023-04-07T18:09:26.658Z,99180.84
2023-04-07T18:12:04.122Z,99180.59
2023-04-07T18:18:49.320Z,99188.75
2023-04-07T18:25:14.088Z,99196.66
2023-04-07T18:28:08.749Z,99195.81
2023-04-07T18:31:51.314Z,99197.88
2023-04-07T18:34:22.007Z,99208.38
2023-04-07T18:36:58.621Z,99207.47
2023-04-07T18:39:39.159Z,99213.38
2023-04-07T18:42:47.776Z,99209.94
2023-04-07T18:45:50.644Z,99212.00
2023-04-07T18:48:58.049Z,99209.38
2023-04-07T18:51:34.371Z,99218.44
2023-04-07T18:58:12.566Z,99222.13
2023-04-07T19:01:24.857Z,99223.25
2023-04-07T19:04:25.836Z,99217.22
2023-04-07T19:07:18.705Z,99218.97
2023-04-07T19:10:09.479Z,99223.00
2023-04-07T19:12:43.045Z,99228.97
2023-04-07T19:15:45.925Z,99233.84
2023-04-07T19:18:29.560Z,99228.88
2023-04-07T19:21:01.701Z,99233.13
2023-04-07T19:23:45.298Z,99232.47
2023-04-07T19:26:20.183Z,99236.38
2023-04-07T19:29:06.229Z,99238.22
2023-04-07T19:31:45.174Z,99247.94
2023-04-07T19:34:22.867Z,99243.63
2023-04-07T19:37:03.364Z,99239.72
2023-04-07T19:39:36.773Z,99242.59
2023-04-07T19:42:10.197Z,99242.81
2023-04-07T19:44:40.381Z,99244.25
2023-04-07T19:47:21.781Z,99251.19
2023-04-07T19:50:03.716Z,99243.81
2023-04-07T19:52:50.577Z,99250.81
2023-04-07T19:59:01.657Z,99253.34
2023-04-07T20:01:32.956Z,99253.41
2023-04-07T20:05:23.738Z,99252.16
2023-04-07T20:08:18.884Z,99260.84
2023-04-07T20:11:22.091Z,99259.97
2023-04-07T20:13:55.080Z,99252.78
2023-04-07T20:16:25.159Z,99255.88
2023-04-07T20:19:02.357Z,99259.19
2023-04-07T20:21:41.793Z,99260.44
2023-04-07T20:24:20.476Z,99256.72
2023-04-07T20:26:55.025Z,99260.59
2023-04-07T20:29:31.468Z,99259.97
2023-04-07T20:32:03.840Z,99253.59
2023-04-07T20:34:33.369Z,99252.56
2023-04-07T20:37:02.674Z,99251.53
2023-04-07T20:39:33.667Z,99254.81
2023-04-07T20:42:37.383Z,99256.66
2023-04-07T20:45:07.867Z,99258.75
2023-04-07T20:47:37.371Z,99258.00
2023-04-07T20:50:09.566Z,99254.31
2023-04-07T20:52:44.085Z,99255.13
2023-04-07T20:55:15.446Z,99254.34
2023-04-07T20:57:46.512Z,99256.34
2023-04-07T21:00:17.686Z,99256.38
2023-04-07T21:02:48.824Z,99254.34
2023-04-07T21:05:18.619Z,99258.28
2023-04-07T21:07:48.166Z,99257.50
2023-04-07T21:10:19.466Z,99258.31
2023-04-07T21:12:48.848Z,99249.47
2023-04-07T21:15:17.883Z,99256.00
2023-04-07T21:17:46.569Z,99253.19
2023-04-07T21:20:20.688Z,99257.91
2023-04-07T21:22:49.417Z,99250.50
2023-04-07T21:25:19.757Z,99249.09
2023-04-07T21:27:48.543Z,99254.63
2023-04-07T21:30:18.164Z,99252.34
2023-04-07T21:32:47.306Z,99248.28
2023-04-07T21:35:16.259Z,99248.09
2023-04-07T21:37:44.957Z,99249.91
2023-04-07T21:40:13.820Z,99248.69
2023-04-07T21:42:43.989Z,99245.63
2023-04-07T21:45:13.468Z,99246.22
2023-04-07T21:47:42.211Z,99247.44
2023-04-07T21:50:12.633Z,99249.69
2023-04-07T21:52:42.533Z,99248.69
2023-04-07T21:55:11.920Z,99245.41
2023-04-07T21:57:40.635Z,99248.69
2023-04-07T22:00:14.177Z,99250.53
2023-04-07T22:02:46.815Z,99248.28
2023-04-07T22:05:19.083Z,99246.84
2023-04-07T22:07:48.653Z,99252.38
2023-04-07T22:10:19.458Z,99246.66
2023-04-07T22:12:48.162Z,99243.56
2023-04-07T22:15:18.382Z,99250.31
2023-04-07T22:17:47.269Z,99249.09
2023-04-07T22:20:16.060Z,99253.19
2023-04-07T22:22:44.758Z,99242.13
2023-04-07T22:25:13.472Z,99251.34
2023-04-07T22:27:42.193Z,99247.88
2023-04-07T22:30:11.296Z,99250.75
2023-04-07T22:32:41.561Z,99247.44
2023-04-07T22:35:11.191Z,99243.38
2023-04-07T22:37:39.929Z,99255.22
2023-04-07T22:40:10.827Z,99257.28
2023-04-07T22:42:41.033Z,99256.88
2023-04-07T22:45:10.980Z,99255.41
2023-04-07T22:47:41.627Z,99258.31
2023-04-07T22:50:11.805Z,99258.91
2023-04-07T22:52:40.569Z,99258.09
2023-04-07T22:55:11.106Z,99253.78
2023-04-07T22:57:39.841Z,99257.69
2023-04-07T23:00:10.092Z,99257.28
2023-04-07T23:02:40.374Z,99258.31
2023-04-07T23:05:10.564Z,99266.31
2023-04-07T23:07:39.416Z,99261.41
2023-04-07T23:10:10.075Z,99264.66
2023-04-07T23:12:39.170Z,99268.75
2023-04-07T23:15:09.154Z,99265.47
2023-04-07T23:17:38.061Z,99271.19
2023-04-07T23:20:10.493Z,99262.38
2023-04-07T23:22:39.239Z,99266.88
2023-04-07T23:25:09.428Z,99260.53
2023-04-07T23:27:38.150Z,99267.91
2023-04-07T23:30:08.595Z,99260.34
2023-04-07T23:32:37.541Z,99257.06
2023-04-07T23:35:08.733Z,99264.00
2023-04-07T23:37:37.464Z,99262.59
2023-04-07T23:40:09.013Z,99261.78
2023-04-07T23:42:37.987Z,99257.69
2023-04-07T23:45:08.301Z,99256.44
2023-04-07T23:47:37.001Z,99252.38
2023-04-07T23:50:08.889Z,99259.31
2023-04-07T23:52:37.565Z,99256.44
2023-04-07T23:55:07.297Z,99254.19
2023-04-07T23:57:36.067Z,99259.72
